createdAt,value
2018-04-01T00:00:59.424Z,10.60
2018-04-01T00:03:28.837Z,10.50
2018-04-01T00:05:56.852Z,10.50
2018-04-01T00:08:24.972Z,10.50
2018-04-01T00:10:53.098Z,10.40
2018-04-01T00:13:21.546Z,10.40
2018-04-01T00:15:49.531Z,10.30
2018-04-01T00:18:17.683Z,10.20
2018-04-01T00:20:45.836Z,10.20
2018-04-01T00:23:14.053Z,10.20
2018-04-01T00:25:42.100Z,10.10
2018-04-01T00:28:10.083Z,10.10
2018-04-01T00:30:38.103Z,10.00
2018-04-01T00:33:06.873Z,10.00
2018-04-01T00:35:35.153Z,10.00
2018-04-01T00:38:04.050Z,10.00
2018-04-01T00:40:33.066Z,10.00
2018-04-01T00:43:01.137Z,10.00
2018-04-01T00:45:29.128Z,9.90
2018-04-01T00:47:57.177Z,9.80
2018-04-01T00:50:25.186Z,9.80
2018-04-01T00:52:53.317Z,9.80
2018-04-01T00:55:21.323Z,9.70
2018-04-01T00:57:49.347Z,9.70
2018-04-01T01:00:18.223Z,9.50
2018-04-01T01:02:46.974Z,9.60
2018-04-01T01:05:14.910Z,9.60
2018-04-01T01:07:42.911Z,9.60
2018-04-01T01:10:10.906Z,9.80
2018-04-01T01:12:39.857Z,9.80
2018-04-01T01:15:07.836Z,9.80
2018-04-01T01:17:35.928Z,9.90
2018-04-01T01:20:03.858Z,9.90
2018-04-01T01:22:32.039Z,9.90
2018-04-01T01:25:00.207Z,10.00
2018-04-01T01:27:28.242Z,10.00
2018-04-01T01:29:57.072Z,9.80
2018-04-01T01:32:24.994Z,9.80
2018-04-01T01:34:53.765Z,9.80
2018-04-01T01:37:22.005Z,9.80
2018-04-01T01:39:50.121Z,9.80
2018-04-01T01:42:18.125Z,9.70
2018-04-01T01:44:46.336Z,9.60
2018-04-01T01:47:14.490Z,9.70
2018-04-01T01:49:42.428Z,9.70
2018-04-01T01:52:11.215Z,9.90
2018-04-01T01:54:39.959Z,9.90
2018-04-01T01:57:08.034Z,9.90
2018-04-01T01:59:36.009Z,9.90
2018-04-01T02:02:04.072Z,9.90
2018-04-01T02:04:32.023Z,9.80
2018-04-01T02:07:00.068Z,9.80
2018-04-01T02:09:28.129Z,9.80
2018-04-01T02:11:56.860Z,9.90
2018-04-01T02:14:25.199Z,9.90
2018-04-01T02:16:53.251Z,10.00
2018-04-01T02:19:21.610Z,9.90
2018-04-01T02:21:49.672Z,9.90
2018-04-01T02:24:17.682Z,9.90
2018-04-01T02:26:45.681Z,9.90
2018-04-01T02:29:13.782Z,9.90
2018-04-01T02:31:42.124Z,9.90
2018-04-01T02:34:10.114Z,9.90
2018-04-01T02:36:38.287Z,9.80
2018-04-01T02:39:06.533Z,9.80
2018-04-01T02:41:34.547Z,9.70
2018-04-01T02:44:02.487Z,9.70
2018-04-01T02:46:30.877Z,9.60
2018-04-01T02:48:58.799Z,9.60
2018-04-01T02:51:27.548Z,9.60
2018-04-01T02:53:55.474Z,9.60
2018-04-01T02:56:23.482Z,9.60
2018-04-01T02:58:51.416Z,9.70
2018-04-01T03:01:19.409Z,9.70
2018-04-01T03:03:47.347Z,9.70
2018-04-01T03:06:16.192Z,9.80
2018-04-01T03:08:44.418Z,9.70
2018-04-01T03:11:12.450Z,9.80
2018-04-01T03:13:40.599Z,9.80
2018-04-01T03:16:08.597Z,9.90
2018-04-01T03:18:36.733Z,10.00
2018-04-01T03:21:05.105Z,10.00
2018-04-01T03:23:33.017Z,10.00
2018-04-01T03:26:01.976Z,9.90
2018-04-01T03:28:29.899Z,9.90
2018-04-01T03:30:58.885Z,9.70
2018-04-01T03:33:27.594Z,9.70
2018-04-01T03:35:55.589Z,9.70
2018-04-01T03:38:23.507Z,9.60
2018-04-01T03:40:52.444Z,9.40
2018-04-01T03:43:20.367Z,9.40
2018-04-01T03:45:48.419Z,9.30
2018-04-01T03:48:16.355Z,9.10
2018-04-01T03:50:44.366Z,9.20
2018-04-01T03:53:12.349Z,9.10
2018-04-01T03:55:41.135Z,9.10
2018-04-01T03:58:09.894Z,9.10
2018-04-01T04:00:38.104Z,9.10
2018-04-01T04:03:06.869Z,9.20
2018-04-01T04:05:34.985Z,9.20
2018-04-01T04:08:03.023Z,9.30
2018-04-01T04:10:31.802Z,9.40
2018-04-01T04:12:59.713Z,9.40
2018-04-01T04:15:28.102Z,9.50
2018-04-01T04:17:56.080Z,9.60
2018-04-01T04:20:24.077Z,9.60
2018-04-01T04:22:52.069Z,9.70
2018-04-01T04:25:20.812Z,9.80
2018-04-01T04:27:48.874Z,9.80
2018-04-01T04:30:16.905Z,9.90
2018-04-01T04:32:45.812Z,10.10
2018-04-01T04:35:13.818Z,10.10
2018-04-01T04:37:42.005Z,10.10
2018-04-01T04:40:09.989Z,10.20
2018-04-01T04:42:38.771Z,10.20
2018-04-01T04:45:06.747Z,10.20
2018-04-01T04:47:35.692Z,10.30
2018-04-01T04:50:03.678Z,10.30
2018-04-01T04:52:31.679Z,10.30
2018-04-01T04:54:59.706Z,10.40
2018-04-01T04:57:27.711Z,10.40
2018-04-01T04:59:55.690Z,10.50
2018-04-01T05:02:23.908Z,10.40
2018-04-01T05:04:52.089Z,10.50
2018-04-01T05:07:20.081Z,10.60
2018-04-01T05:09:48.073Z,10.70
2018-04-01T05:12:16.049Z,10.90
2018-04-01T05:14:44.113Z,11.10
2018-04-01T05:17:12.039Z,11.20
2018-04-01T05:19:40.302Z,11.30
2018-04-01T05:22:08.301Z,11.30
2018-04-01T05:24:36.297Z,11.40
2018-04-01T05:27:05.067Z,11.60
2018-04-01T05:29:33.302Z,11.50
2018-04-01T05:32:01.348Z,11.70
2018-04-01T05:34:29.829Z,11.90
2018-04-01T05:36:58.817Z,12.40
2018-04-01T05:39:27.037Z,12.40
2018-04-01T05:41:55.037Z,12.50
2018-04-01T05:44:23.093Z,12.60
2018-04-01T05:46:51.079Z,12.80
2018-04-01T05:49:19.087Z,12.80
2018-04-01T05:51:47.081Z,13.00
2018-04-01T05:54:15.095Z,12.90
2018-04-01T05:56:43.107Z,13.00
2018-04-01T05:59:11.109Z,13.20
2018-04-01T06:01:39.410Z,13.40
2018-04-01T06:04:07.771Z,13.80
2018-04-01T06:06:35.948Z,14.00
2018-04-01T06:09:04.212Z,14.30
2018-04-01T06:11:32.228Z,15.00
2018-04-01T06:14:01.002Z,15.50
2018-04-01T06:16:29.065Z,15.50
2018-04-01T06:18:57.422Z,16.00
2018-04-01T06:21:25.392Z,16.20
2018-04-01T06:23:57.148Z,16.30
2018-04-01T06:26:29.188Z,16.20
2018-04-01T06:28:59.847Z,16.20
2018-04-01T06:31:28.861Z,16.30
2018-04-01T06:34:01.876Z,16.40
2018-04-01T06:36:34.758Z,16.40
2018-04-01T06:39:06.110Z,16.50
2018-04-01T06:41:35.748Z,16.50
2018-04-01T06:44:05.553Z,16.50
2018-04-01T06:46:35.078Z,16.50
2018-04-01T06:49:04.482Z,16.60
2018-04-01T06:51:34.984Z,16.50
2018-04-01T06:54:05.628Z,16.60
2018-04-01T06:56:34.126Z,16.60
2018-04-01T06:59:02.695Z,16.50
2018-04-01T07:01:32.042Z,16.30
2018-04-01T07:04:01.874Z,16.50
2018-04-01T07:06:32.015Z,16.60
2018-04-01T07:09:01.276Z,16.60
2018-04-01T07:11:30.574Z,16.60
2018-04-01T07:13:58.725Z,16.90
2018-04-01T07:16:27.922Z,17.20
2018-04-01T07:18:57.067Z,17.30
2018-04-01T07:21:26.540Z,17.50
2018-04-01T07:23:55.621Z,17.80
2018-04-01T07:26:25.768Z,18.00
2018-04-01T07:28:54.699Z,18.10
2018-04-01T07:31:24.275Z,18.30
2018-04-01T07:33:52.855Z,18.30
2018-04-01T07:36:21.462Z,18.50
2018-04-01T07:38:49.501Z,18.40
2018-04-01T07:41:17.545Z,18.50
2018-04-01T07:43:45.473Z,18.20
2018-04-01T07:46:13.778Z,18.20
2018-04-01T07:48:41.881Z,18.20
2018-04-01T07:51:09.919Z,18.30
2018-04-01T07:53:37.953Z,18.60
2018-04-01T07:56:06.820Z,18.90
2018-04-01T07:58:34.812Z,18.90
2018-04-01T08:01:02.810Z,19.30
2018-04-01T08:03:30.953Z,19.70
2018-04-01T08:05:59.078Z,20.20
2018-04-01T08:08:27.277Z,21.10
2018-04-01T08:10:55.255Z,22.00
2018-04-01T08:13:23.318Z,23.10
2018-04-01T08:15:52.084Z,24.30
2018-04-01T08:18:20.280Z,24.30
2018-04-01T08:20:48.210Z,25.00
2018-04-01T08:23:17.153Z,25.30
2018-04-01T08:25:45.137Z,25.30
2018-04-01T08:28:13.886Z,25.60
2018-04-01T08:30:42.047Z,25.50
2018-04-01T08:33:10.041Z,25.20
2018-04-01T08:35:38.228Z,24.80
2018-04-01T08:38:07.219Z,24.40
2018-04-01T08:40:36.156Z,24.30
2018-04-01T08:43:04.537Z,24.20
2018-04-01T08:45:32.601Z,24.00
2018-04-01T08:48:01.576Z,23.80
2018-04-01T08:50:29.730Z,23.80
2018-04-01T08:52:58.483Z,25.30
2018-04-01T08:55:26.465Z,25.30
2018-04-01T08:57:54.810Z,25.70
2018-04-01T09:00:22.782Z,26.00
2018-04-01T09:02:50.860Z,26.50
2018-04-01T09:05:19.095Z,26.90
2018-04-01T09:07:48.134Z,27.30
2018-04-01T09:10:16.244Z,27.30
2018-04-01T09:12:44.215Z,27.90
2018-04-01T09:15:12.243Z,28.00
2018-04-01T09:17:40.336Z,28.30
2018-04-01T09:20:08.383Z,28.10
2018-04-01T09:22:36.629Z,27.20
2018-04-01T09:25:04.690Z,27.70
2018-04-01T09:27:33.616Z,27.30
2018-04-01T09:30:01.649Z,27.30
2018-04-01T09:35:30.050Z,28.30
2018-04-01T09:37:58.882Z,29.00
2018-04-01T09:40:26.922Z,29.00
2018-04-01T09:42:55.217Z,28.80
2018-04-01T09:45:23.333Z,29.10
2018-04-01T09:47:51.482Z,29.70
2018-04-01T09:50:19.478Z,30.00
2018-04-01T09:52:48.458Z,30.50
2018-04-01T09:55:16.603Z,30.50
2018-04-01T09:57:44.597Z,30.80
2018-04-01T10:00:12.648Z,30.80
2018-04-01T10:02:41.440Z,30.40
2018-04-01T10:05:14.110Z,30.20
2018-04-01T10:07:42.701Z,30.50
2018-04-01T10:10:12.379Z,30.80
2018-04-01T10:12:42.086Z,31.30
2018-04-01T10:15:11.274Z,31.30
2018-04-01T10:17:40.246Z,31.50
2018-04-01T10:20:09.618Z,31.50
2018-04-01T10:22:38.995Z,31.50
2018-04-01T10:25:08.020Z,31.00
2018-04-01T10:27:36.901Z,31.10
2018-04-01T10:30:06.397Z,31.30
2018-04-01T10:32:35.330Z,31.20
2018-04-01T10:35:04.607Z,30.80
2018-04-01T10:37:33.481Z,30.60
2018-04-01T10:40:02.407Z,30.80
2018-04-01T10:42:31.307Z,30.80
2018-04-01T10:45:00.260Z,30.70
2018-04-01T10:47:29.179Z,30.80
2018-04-01T10:49:58.056Z,30.70
2018-04-01T10:52:26.918Z,30.60
2018-04-01T10:54:55.307Z,30.20
2018-04-01T10:57:23.621Z,30.60
2018-04-01T10:59:52.167Z,30.90
2018-04-01T11:02:20.426Z,31.00
2018-04-01T11:04:48.457Z,31.00
2018-04-01T11:07:16.677Z,30.80
2018-04-01T11:09:45.021Z,30.70
2018-04-01T11:12:13.974Z,30.70
2018-04-01T11:14:41.987Z,30.70
2018-04-01T11:17:09.957Z,30.60
2018-04-01T11:19:38.722Z,30.60
2018-04-01T11:22:06.769Z,30.60
2018-04-01T11:24:34.828Z,30.30
2018-04-01T11:27:03.092Z,30.70
2018-04-01T11:29:31.050Z,30.10
2018-04-01T11:31:59.050Z,29.80
2018-04-01T11:34:27.021Z,30.10
2018-04-01T11:36:55.222Z,30.20
2018-04-01T11:39:23.149Z,30.20
2018-04-01T11:41:51.237Z,29.90
2018-04-01T11:44:20.094Z,30.20
2018-04-01T11:46:48.245Z,30.20
2018-04-01T11:49:18.874Z,30.00
2018-04-01T11:51:52.986Z,30.10
2018-04-01T11:54:25.242Z,29.80
2018-04-01T11:56:59.902Z,30.10
2018-04-01T11:59:36.635Z,30.00
2018-04-01T12:02:09.109Z,30.10
2018-04-01T12:04:38.162Z,29.90
2018-04-01T12:07:11.573Z,29.60
2018-04-01T12:09:45.349Z,29.30
2018-04-01T12:12:16.022Z,29.10
2018-04-01T12:14:49.799Z,29.20
2018-04-01T12:17:26.350Z,28.50
2018-04-01T12:19:58.016Z,28.40
2018-04-01T12:22:31.697Z,28.40
2018-04-01T12:25:04.787Z,28.10
2018-04-01T12:27:36.838Z,27.90
2018-04-01T12:30:05.992Z,27.80
2018-04-01T12:32:38.800Z,27.80
2018-04-01T12:35:12.468Z,27.80
2018-04-01T12:37:47.362Z,27.70
2018-04-01T12:40:17.389Z,27.90
2018-04-01T12:42:48.658Z,27.90
2018-04-01T12:45:20.442Z,27.90
2018-04-01T12:47:48.895Z,27.80
2018-04-01T12:50:17.148Z,27.80
2018-04-01T12:52:45.892Z,27.60
2018-04-01T12:55:13.876Z,27.60
2018-04-01T12:57:41.883Z,27.60
2018-04-01T13:00:09.981Z,27.70
2018-04-01T13:02:38.356Z,27.70
2018-04-01T13:05:06.851Z,27.60
2018-04-01T13:07:34.839Z,27.60
2018-04-01T13:10:04.256Z,27.70
2018-04-01T13:12:32.826Z,27.70
2018-04-01T13:15:01.775Z,27.50
2018-04-01T13:17:29.913Z,27.40
2018-04-01T13:19:57.926Z,27.50
2018-04-01T13:22:26.121Z,27.50
2018-04-01T13:24:54.101Z,27.40
2018-04-01T13:27:22.027Z,27.40
2018-04-01T13:29:50.026Z,27.30
2018-04-01T13:32:18.957Z,27.30
2018-04-01T13:34:46.985Z,27.30
2018-04-01T13:37:15.161Z,27.40
2018-04-01T13:39:43.289Z,27.60
2018-04-01T13:42:12.060Z,27.70
2018-04-01T13:44:40.865Z,27.50
2018-04-01T13:47:09.621Z,27.40
2018-04-01T13:49:37.908Z,27.40
2018-04-01T13:52:05.915Z,27.50
2018-04-01T13:54:33.914Z,27.30
2018-04-01T13:57:01.894Z,27.30
2018-04-01T13:59:29.836Z,27.20
2018-04-01T14:01:58.067Z,27.20
2018-04-01T14:04:26.044Z,27.20
2018-04-01T14:06:54.327Z,27.20
2018-04-01T14:09:23.086Z,27.00
2018-04-01T14:11:51.186Z,27.00
2018-04-01T14:14:19.250Z,27.00
2018-04-01T14:16:47.253Z,26.90
2018-04-01T14:19:15.247Z,26.70
2018-04-01T14:21:44.304Z,26.80
2018-04-01T14:24:13.045Z,26.70
2018-04-01T14:26:41.073Z,26.70
2018-04-01T14:29:09.185Z,26.70
2018-04-01T14:31:37.281Z,26.70
2018-04-01T14:34:05.264Z,26.60
2018-04-01T14:36:33.320Z,26.50
2018-04-01T14:39:01.441Z,26.40
2018-04-01T14:41:29.642Z,26.30
2018-04-01T14:43:57.621Z,26.30
2018-04-01T14:46:25.681Z,26.20
2018-04-01T14:48:53.853Z,26.30
2018-04-01T14:51:21.816Z,26.20
2018-04-01T14:53:49.787Z,26.20
2018-04-01T14:56:17.862Z,26.20
2018-04-01T14:58:45.950Z,26.10
2018-04-01T15:01:14.193Z,26.00
2018-04-01T15:03:42.280Z,26.00
2018-04-01T15:06:10.252Z,25.90
2018-04-01T15:08:38.328Z,25.90
2018-04-01T15:11:06.390Z,25.70
2018-04-01T15:13:34.379Z,25.60
2018-04-01T15:16:02.370Z,25.50
2018-04-01T15:18:30.462Z,25.50
2018-04-01T15:20:58.460Z,25.50
2018-04-01T15:23:26.761Z,25.40
2018-04-01T15:25:55.753Z,25.40
2018-04-01T15:28:23.732Z,25.30
2018-04-01T15:30:51.852Z,25.30
2018-04-01T15:33:19.974Z,25.20
2018-04-01T15:35:48.313Z,25.00
2018-04-01T15:38:16.500Z,24.80
2018-04-01T15:40:44.788Z,24.80
2018-04-01T15:43:12.814Z,24.60
2018-04-01T15:45:41.549Z,24.30
2018-04-01T15:48:09.709Z,24.20
2018-04-01T15:50:37.705Z,24.00
2018-04-01T15:53:05.702Z,23.80
2018-04-01T15:55:33.919Z,23.60
2018-04-01T15:58:02.247Z,23.60
2018-04-01T16:00:31.060Z,23.20
2018-04-01T16:02:59.403Z,23.20
2018-04-01T16:05:27.385Z,23.20
2018-04-01T16:07:55.352Z,23.10
2018-04-01T16:10:24.097Z,22.80
2018-04-01T16:12:52.133Z,22.80
2018-04-01T16:15:20.131Z,22.70
2018-04-01T16:17:48.355Z,22.50
2018-04-01T16:20:16.335Z,22.40
2018-04-01T16:22:44.851Z,22.30
2018-04-01T16:25:12.870Z,22.20
2018-04-01T16:27:40.908Z,22.00
2018-04-01T16:30:09.285Z,22.00
2018-04-01T16:32:37.257Z,21.80
2018-04-01T16:35:05.243Z,21.80
2018-04-01T16:37:33.370Z,21.70
2018-04-01T16:40:01.349Z,21.60
2018-04-01T16:42:29.321Z,21.60
2018-04-01T16:44:57.543Z,21.50
2018-04-01T16:47:26.609Z,21.30
2018-04-01T16:49:54.734Z,21.30
2018-04-01T16:52:22.770Z,21.10
2018-04-01T16:54:50.943Z,21.00
2018-04-01T16:57:20.019Z,20.80
2018-04-01T16:59:48.000Z,20.80
2018-04-01T17:02:16.446Z,20.80
2018-04-01T17:04:44.531Z,20.70
2018-04-01T17:07:12.513Z,20.70
2018-04-01T17:09:40.563Z,20.70
2018-04-01T17:12:08.585Z,20.60
2018-04-01T17:14:36.584Z,20.60
2018-04-01T17:17:05.323Z,20.40
2018-04-01T17:19:33.446Z,20.40
2018-04-01T17:22:01.452Z,20.40
2018-04-01T17:24:29.423Z,20.30
2018-04-01T17:26:57.435Z,20.30
2018-04-01T17:29:26.358Z,20.20
2018-04-01T17:31:54.466Z,20.20
2018-04-01T17:34:23.194Z,20.10
2018-04-01T17:36:51.129Z,20.10
2018-04-01T17:39:19.106Z,20.00
2018-04-01T17:41:47.105Z,19.90
2018-04-01T17:44:16.070Z,19.90
2018-04-01T17:46:45.030Z,19.80
2018-04-01T17:49:13.019Z,19.80
2018-04-01T17:51:41.390Z,19.80
2018-04-01T17:54:09.935Z,19.80
2018-04-01T17:56:37.913Z,19.80
2018-04-01T17:59:05.917Z,19.80
2018-04-01T18:01:33.901Z,19.80
2018-04-01T18:04:01.881Z,19.80
2018-04-01T18:06:29.880Z,19.70
2018-04-01T18:08:57.898Z,19.60
2018-04-01T18:11:25.888Z,19.50
2018-04-01T18:13:53.865Z,19.50
2018-04-01T18:16:21.831Z,19.50
2018-04-01T18:18:50.049Z,19.40
2018-04-01T18:21:18.058Z,19.30
2018-04-01T18:23:46.534Z,19.30
2018-04-01T18:26:14.515Z,19.30
2018-04-01T18:28:42.489Z,19.20
2018-04-01T18:31:11.263Z,19.10
2018-04-01T18:33:39.342Z,19.10
2018-04-01T18:36:07.356Z,19.00
2018-04-01T18:38:35.620Z,19.00
2018-04-01T18:41:03.591Z,19.00
2018-04-01T18:43:31.581Z,18.90
2018-04-01T18:45:59.577Z,18.90
2018-04-01T18:48:27.516Z,18.80
2018-04-01T18:50:55.535Z,18.80
2018-04-01T18:53:23.684Z,18.80
2018-04-01T18:55:51.657Z,18.80
2018-04-01T18:58:19.920Z,18.80
2018-04-01T19:00:47.917Z,18.70
2018-04-01T19:03:16.218Z,18.70
2018-04-01T19:05:44.350Z,18.80
2018-04-01T19:08:12.706Z,18.60
2018-04-01T19:10:40.755Z,18.50
2018-04-01T19:13:09.577Z,18.50
2018-04-01T19:15:38.093Z,18.50
2018-04-01T19:18:07.008Z,18.60
2018-04-01T19:20:35.872Z,18.60
2018-04-01T19:23:04.818Z,18.60
2018-04-01T19:25:33.689Z,18.70
2018-04-01T19:28:03.498Z,18.70
2018-04-01T19:30:32.356Z,18.70
2018-04-01T19:33:01.241Z,18.80
2018-04-01T19:35:31.002Z,18.90
2018-04-01T19:38:00.563Z,18.80
2018-04-01T19:40:29.529Z,18.80
2018-04-01T19:42:58.382Z,18.90
2018-04-01T19:45:28.037Z,19.00
2018-04-01T19:47:58.024Z,19.00
2018-04-01T19:50:26.883Z,19.00
2018-04-01T19:52:55.892Z,18.60
2018-04-01T19:55:25.571Z,17.50
2018-04-01T19:57:54.562Z,17.50
2018-04-01T20:00:23.621Z,17.10
2018-04-01T20:02:52.840Z,16.80
2018-04-01T20:05:21.900Z,16.40
2018-04-01T20:07:51.237Z,16.20
2018-04-01T20:10:20.393Z,16.00
2018-04-01T20:12:49.958Z,15.60
2018-04-01T20:15:19.428Z,15.60
2018-04-01T20:17:48.515Z,15.50
2018-04-01T20:20:17.581Z,15.40
2018-04-01T20:22:47.527Z,15.30
2018-04-01T20:25:16.444Z,15.30
2018-04-01T20:27:45.635Z,15.30
2018-04-01T20:30:14.666Z,15.30
2018-04-01T20:32:44.621Z,15.10
2018-04-01T20:35:14.293Z,15.10
2018-04-01T20:37:43.317Z,15.10
2018-04-01T20:40:12.237Z,15.00
2018-04-01T20:42:41.057Z,15.00
2018-04-01T20:45:09.996Z,15.00
2018-04-01T20:47:38.924Z,15.00
2018-04-01T20:50:07.868Z,14.90
2018-04-01T20:52:37.546Z,14.70
2018-04-01T20:55:07.137Z,14.70
2018-04-01T20:57:36.132Z,14.70
2018-04-01T21:00:05.220Z,14.70
2018-04-01T21:02:34.446Z,14.60
2018-04-01T21:05:03.310Z,14.50
2018-04-01T21:07:32.204Z,14.30
2018-04-01T21:10:00.985Z,14.10
2018-04-01T21:12:30.145Z,14.20
2018-04-01T21:14:59.156Z,14.10
2018-04-01T21:17:28.207Z,14.10
2018-04-01T21:19:57.929Z,13.90
2018-04-01T21:22:27.592Z,13.90
2018-04-01T21:24:56.618Z,13.80
2018-04-01T21:27:25.629Z,13.90
2018-04-01T21:29:54.809Z,14.00
2018-04-01T21:32:25.670Z,13.90
2018-04-01T21:34:54.554Z,13.90
2018-04-01T21:37:23.572Z,13.90
2018-04-01T21:39:55.716Z,13.90
2018-04-01T21:42:30.453Z,13.90
2018-04-01T21:45:00.464Z,14.00
2018-04-01T21:47:29.333Z,14.00
2018-04-01T21:50:05.138Z,13.80
2018-04-01T21:52:40.255Z,13.60
2018-04-01T21:55:14.491Z,13.40
2018-04-01T21:57:47.231Z,13.20
2018-04-01T22:00:17.708Z,13.20
2018-04-01T22:02:48.598Z,13.10
2018-04-01T22:05:21.522Z,13.10
2018-04-01T22:07:54.061Z,13.10
2018-04-01T22:10:24.789Z,13.10
2018-04-01T22:12:57.097Z,13.10
2018-04-01T22:15:28.680Z,13.00
2018-04-01T22:18:00.650Z,13.00
2018-04-01T22:20:37.258Z,13.00
2018-04-01T22:23:19.527Z,13.00
2018-04-01T22:25:56.291Z,13.00
2018-04-01T22:28:33.368Z,13.00
2018-04-01T22:31:05.616Z,13.00
2018-04-01T22:33:41.324Z,12.90
2018-04-01T22:36:11.640Z,13.00
2018-04-01T22:38:40.762Z,13.00
2018-04-01T22:41:10.422Z,13.00
2018-04-01T22:43:39.308Z,13.00
2018-04-01T22:46:09.355Z,13.00
2018-04-01T22:48:38.993Z,12.80
2018-04-01T22:51:08.254Z,12.80
2018-04-01T22:53:38.809Z,12.50
2018-04-01T22:56:07.928Z,12.50
2018-04-01T22:58:36.823Z,12.30
2018-04-01T23:01:06.003Z,12.20
2018-04-01T23:03:35.089Z,12.20
2018-04-01T23:06:04.902Z,12.20
2018-04-01T23:08:33.749Z,12.20
2018-04-01T23:11:02.632Z,12.10
2018-04-01T23:13:31.613Z,12.10
2018-04-01T23:16:01.442Z,12.00
2018-04-01T23:18:30.477Z,11.90
2018-04-01T23:20:59.385Z,11.90
2018-04-01T23:23:29.092Z,11.80
2018-04-01T23:25:58.692Z,11.90
2018-04-01T23:28:28.399Z,11.80
2018-04-01T23:30:57.330Z,11.80
2018-04-01T23:33:26.244Z,11.80
2018-04-01T23:35:55.246Z,11.70
2018-04-01T23:38:24.198Z,11.80
2018-04-01T23:40:53.229Z,11.70
2018-04-01T23:43:22.152Z,11.60
2018-04-01T23:45:51.983Z,11.70
2018-04-01T23:48:21.547Z,11.60
2018-04-01T23:50:51.512Z,11.70
2018-04-01T23:53:20.428Z,11.60
2018-04-01T23:55:49.520Z,11.60
2018-04-01T23:58:19.050Z,11.60
